sensor_id;sensor_type;location;lat;lon;timestamp;temperature;humidity
74171;DHT22;62526;50.948;6.590;2023-03-21T00:01:30;11.30;99.90
74171;DHT22;62526;50.948;6.590;2023-03-21T00:03:57;11.30;99.90
74171;DHT22;62526;50.948;6.590;2023-03-21T00:06:24;11.30;99.90
74171;DHT22;62526;50.948;6.590;2023-03-21T00:08:51;11.30;99.90
74171;DHT22;62526;50.948;6.590;2023-03-21T00:11:18;11.30;99.90
74171;DHT22;62526;50.948;6.590;2023-03-21T00:13:44;11.30;99.90
74171;DHT22;62526;50.948;6.590;2023-03-21T00:16:13;11.30;99.90
74171;DHT22;62526;50.948;6.590;2023-03-21T00:18:41;11.30;99.90
74171;DHT22;62526;50.948;6.590;2023-03-21T00:21:09;11.30;99.90
74171;DHT22;62526;50.948;6.590;2023-03-21T00:23:34;11.30;99.90
74171;DHT22;62526;50.948;6.590;2023-03-21T00:26:01;11.30;99.90
74171;DHT22;62526;50.948;6.590;2023-03-21T00:28:28;11.30;99.90
74171;DHT22;62526;50.948;6.590;2023-03-21T00:30:57;11.30;99.90
74171;DHT22;62526;50.948;6.590;2023-03-21T00:36:09;11.20;99.90
74171;DHT22;62526;50.948;6.590;2023-03-21T00:38:36;11.30;99.90
74171;DHT22;62526;50.948;6.590;2023-03-21T00:41:05;11.30;99.90
74171;DHT22;62526;50.948;6.590;2023-03-21T00:43:32;11.30;99.90
74171;DHT22;62526;50.948;6.590;2023-03-21T00:45:58;11.20;99.90
74171;DHT22;62526;50.948;6.590;2023-03-21T00:48:25;11.20;99.90
74171;DHT22;62526;50.948;6.590;2023-03-21T00:50:53;11.20;99.90
74171;DHT22;62526;50.948;6.590;2023-03-21T00:53:19;11.10;99.90
74171;DHT22;62526;50.948;6.590;2023-03-21T00:55:46;11.10;99.90
74171;DHT22;62526;50.948;6.590;2023-03-21T00:58:13;11.10;99.90
74171;DHT22;62526;50.948;6.590;2023-03-21T01:00:39;11.10;99.90
74171;DHT22;62526;50.948;6.590;2023-03-21T01:03:07;11.10;99.90
74171;DHT22;62526;50.948;6.590;2023-03-21T01:05:36;11.10;99.90
74171;DHT22;62526;50.948;6.590;2023-03-21T01:08:05;11.00;99.90
74171;DHT22;62526;50.948;6.590;2023-03-21T01:10:32;11.00;99.90
74171;DHT22;62526;50.948;6.590;2023-03-21T01:12:58;11.00;99.90
74171;DHT22;62526;50.948;6.590;2023-03-21T01:15:26;11.00;99.90
74171;DHT22;62526;50.948;6.590;2023-03-21T01:17:53;11.00;99.90
74171;DHT22;62526;50.948;6.590;2023-03-21T01:20:19;11.10;99.90
74171;DHT22;62526;50.948;6.590;2023-03-21T01:22:46;11.10;99.90
74171;DHT22;62526;50.948;6.590;2023-03-21T01:25:13;11.10;99.90
74171;DHT22;62526;50.948;6.590;2023-03-21T01:27:39;11.10;99.90
74171;DHT22;62526;50.948;6.590;2023-03-21T01:30:07;11.20;99.90
74171;DHT22;62526;50.948;6.590;2023-03-21T01:32:34;11.20;99.90
74171;DHT22;62526;50.948;6.590;2023-03-21T01:35:00;11.30;99.90
74171;DHT22;62526;50.948;6.590;2023-03-21T01:37:28;11.30;99.90
74171;DHT22;62526;50.948;6.590;2023-03-21T01:39:54;11.40;99.90
74171;DHT22;62526;50.948;6.590;2023-03-21T01:42:22;11.40;99.90
74171;DHT22;62526;50.948;6.590;2023-03-21T01:44:54;11.50;99.90
74171;DHT22;62526;50.948;6.590;2023-03-21T01:47:20;11.50;99.90
74171;DHT22;62526;50.948;6.590;2023-03-21T01:49:48;11.50;99.90
74171;DHT22;62526;50.948;6.590;2023-03-21T01:52:16;11.50;99.90
74171;DHT22;62526;50.948;6.590;2023-03-21T01:54:41;11.50;99.90
74171;DHT22;62526;50.948;6.590;2023-03-21T01:57:11;11.50;99.90
74171;DHT22;62526;50.948;6.590;2023-03-21T01:59:44;11.50;99.90
74171;DHT22;62526;50.948;6.590;2023-03-21T02:02:11;11.40;99.90
74171;DHT22;62526;50.948;6.590;2023-03-21T02:04:37;11.40;99.90
74171;DHT22;62526;50.948;6.590;2023-03-21T02:07:08;11.40;99.90
74171;DHT22;62526;50.948;6.590;2023-03-21T02:09:34;11.40;99.90
74171;DHT22;62526;50.948;6.590;2023-03-21T02:12:00;11.30;99.90
74171;DHT22;62526;50.948;6.590;2023-03-21T02:14:26;11.30;99.90
74171;DHT22;62526;50.948;6.590;2023-03-21T02:17:00;11.40;99.90
74171;DHT22;62526;50.948;6.590;2023-03-21T02:22:37;11.40;99.90
74171;DHT22;62526;50.948;6.590;2023-03-21T02:25:12;11.40;99.90
74171;DHT22;62526;50.948;6.590;2023-03-21T02:27:41;11.40;99.90
74171;DHT22;62526;50.948;6.590;2023-03-21T02:30:26;11.40;99.90
74171;DHT22;62526;50.948;6.590;2023-03-21T02:32:58;11.40;99.90
74171;DHT22;62526;50.948;6.590;2023-03-21T02:35:33;11.40;99.90
74171;DHT22;62526;50.948;6.590;2023-03-21T02:38:13;11.30;99.90
74171;DHT22;62526;50.948;6.590;2023-03-21T02:41:00;11.30;99.90
74171;DHT22;62526;50.948;6.590;2023-03-21T02:43:30;11.20;99.90
74171;DHT22;62526;50.948;6.590;2023-03-21T02:46:16;11.10;99.90
74171;DHT22;62526;50.948;6.590;2023-03-21T02:48:47;11.00;99.90
74171;DHT22;62526;50.948;6.590;2023-03-21T02:51:12;11.00;99.90
74171;DHT22;62526;50.948;6.590;2023-03-21T02:53:38;10.90;99.90
74171;DHT22;62526;50.948;6.590;2023-03-21T02:56:05;10.90;99.90
74171;DHT22;62526;50.948;6.590;2023-03-21T02:58:32;10.80;99.90
74171;DHT22;62526;50.948;6.590;2023-03-21T03:00:58;10.80;99.90
74171;DHT22;62526;50.948;6.590;2023-03-21T03:03:25;10.80;99.90
74171;DHT22;62526;50.948;6.590;2023-03-21T03:05:53;10.80;99.90
74171;DHT22;62526;50.948;6.590;2023-03-21T03:08:41;10.80;99.90
74171;DHT22;62526;50.948;6.590;2023-03-21T03:11:20;10.80;99.90
74171;DHT22;62526;50.948;6.590;2023-03-21T03:16:31;10.80;99.90
74171;DHT22;62526;50.948;6.590;2023-03-21T03:18:55;10.70;99.90
74171;DHT22;62526;50.948;6.590;2023-03-21T03:21:28;10.70;99.90
74171;DHT22;62526;50.948;6.590;2023-03-21T03:26:47;10.70;99.90
74171;DHT22;62526;50.948;6.590;2023-03-21T03:29:13;10.70;99.90
74171;DHT22;62526;50.948;6.590;2023-03-21T03:31:46;10.70;99.90
74171;DHT22;62526;50.948;6.590;2023-03-21T03:34:12;10.70;99.90
74171;DHT22;62526;50.948;6.590;2023-03-21T03:36:38;10.60;99.90
74171;DHT22;62526;50.948;6.590;2023-03-21T03:39:06;10.60;99.90
74171;DHT22;62526;50.948;6.590;2023-03-21T03:41:32;10.60;99.90
74171;DHT22;62526;50.948;6.590;2023-03-21T03:43:58;10.60;99.90
74171;DHT22;62526;50.948;6.590;2023-03-21T03:46:27;10.60;99.90
74171;DHT22;62526;50.948;6.590;2023-03-21T03:49:00;10.60;99.90
74171;DHT22;62526;50.948;6.590;2023-03-21T03:51:29;10.60;99.90
74171;DHT22;62526;50.948;6.590;2023-03-21T03:54:02;10.60;99.90
74171;DHT22;62526;50.948;6.590;2023-03-21T03:56:29;10.60;99.90
74171;DHT22;62526;50.948;6.590;2023-03-21T03:58:55;10.60;99.90
74171;DHT22;62526;50.948;6.590;2023-03-21T04:01:20;10.60;99.90
74171;DHT22;62526;50.948;6.590;2023-03-21T04:03:47;10.60;99.90
74171;DHT22;62526;50.948;6.590;2023-03-21T04:06:15;10.60;99.90
74171;DHT22;62526;50.948;6.590;2023-03-21T04:08:41;10.60;99.90
74171;DHT22;62526;50.948;6.590;2023-03-21T04:11:09;10.60;99.90
74171;DHT22;62526;50.948;6.590;2023-03-21T04:13:35;10.70;99.90
74171;DHT22;62526;50.948;6.590;2023-03-21T04:16:01;10.70;99.90
74171;DHT22;62526;50.948;6.590;2023-03-21T04:18:28;10.70;99.90
74171;DHT22;62526;50.948;6.590;2023-03-21T04:20:55;10.70;99.90
74171;DHT22;62526;50.948;6.590;2023-03-21T04:23:22;10.70;99.90
74171;DHT22;62526;50.948;6.590;2023-03-21T04:25:49;10.70;99.90
74171;DHT22;62526;50.948;6.590;2023-03-21T04:28:15;10.70;99.90
74171;DHT22;62526;50.948;6.590;2023-03-21T04:30:42;10.70;99.90
74171;DHT22;62526;50.948;6.590;2023-03-21T04:33:09;10.70;99.90
74171;DHT22;62526;50.948;6.590;2023-03-21T04:35:35;10.70;99.90
74171;DHT22;62526;50.948;6.590;2023-03-21T04:38:02;10.70;99.90
74171;DHT22;62526;50.948;6.590;2023-03-21T04:40:28;10.70;99.90
74171;DHT22;62526;50.948;6.590;2023-03-21T04:42:57;10.70;99.90
74171;DHT22;62526;50.948;6.590;2023-03-21T04:45:24;10.70;99.90
74171;DHT22;62526;50.948;6.590;2023-03-21T04:47:50;10.70;99.90
74171;DHT22;62526;50.948;6.590;2023-03-21T04:50:18;10.70;99.90
74171;DHT22;62526;50.948;6.590;2023-03-21T04:52:45;10.70;99.90
74171;DHT22;62526;50.948;6.590;2023-03-21T04:55:11;10.70;99.90
74171;DHT22;62526;50.948;6.590;2023-03-21T04:57:38;10.70;99.90
74171;DHT22;62526;50.948;6.590;2023-03-21T05:00:07;10.70;99.90
74171;DHT22;62526;50.948;6.590;2023-03-21T05:02:36;10.70;99.90
74171;DHT22;62526;50.948;6.590;2023-03-21T05:05:03;10.70;99.90
74171;DHT22;62526;50.948;6.590;2023-03-21T05:07:30;10.70;99.90
74171;DHT22;62526;50.948;6.590;2023-03-21T05:09:57;10.70;99.90
74171;DHT22;62526;50.948;6.590;2023-03-21T05:12:24;10.60;99.90
74171;DHT22;62526;50.948;6.590;2023-03-21T05:14:51;10.60;99.90
74171;DHT22;62526;50.948;6.590;2023-03-21T05:17:18;10.60;99.90
74171;DHT22;62526;50.948;6.590;2023-03-21T05:19:45;10.60;99.90
74171;DHT22;62526;50.948;6.590;2023-03-21T05:22:12;10.60;99.90
74171;DHT22;62526;50.948;6.590;2023-03-21T05:24:39;10.60;99.90
74171;DHT22;62526;50.948;6.590;2023-03-21T05:27:06;10.50;99.90
74171;DHT22;62526;50.948;6.590;2023-03-21T05:29:32;10.50;99.90
74171;DHT22;62526;50.948;6.590;2023-03-21T05:31:59;10.50;99.90
74171;DHT22;62526;50.948;6.590;2023-03-21T05:34:26;10.50;99.90
74171;DHT22;62526;50.948;6.590;2023-03-21T05:36:53;10.40;99.90
74171;DHT22;62526;50.948;6.590;2023-03-21T05:39:20;10.40;99.90
74171;DHT22;62526;50.948;6.590;2023-03-21T05:41:46;10.40;99.90
74171;DHT22;62526;50.948;6.590;2023-03-21T05:44:13;10.40;99.90
74171;DHT22;62526;50.948;6.590;2023-03-21T05:46:40;10.40;99.90
74171;DHT22;62526;50.948;6.590;2023-03-21T05:49:06;10.40;99.90
74171;DHT22;62526;50.948;6.590;2023-03-21T05:51:33;10.40;99.90
74171;DHT22;62526;50.948;6.590;2023-03-21T05:53:59;10.40;99.90
74171;DHT22;62526;50.948;6.590;2023-03-21T05:56:26;10.40;99.90
74171;DHT22;62526;50.948;6.590;2023-03-21T05:58:52;10.40;99.90
74171;DHT22;62526;50.948;6.590;2023-03-21T06:01:19;10.50;99.90
74171;DHT22;62526;50.948;6.590;2023-03-21T06:03:46;10.50;99.90
74171;DHT22;62526;50.948;6.590;2023-03-21T06:06:13;10.50;99.90
74171;DHT22;62526;50.948;6.590;2023-03-21T06:08:39;10.50;99.90
74171;DHT22;62526;50.948;6.590;2023-03-21T06:11:08;10.60;99.90
74171;DHT22;62526;50.948;6.590;2023-03-21T06:13:37;10.60;99.90
74171;DHT22;62526;50.948;6.590;2023-03-21T06:16:06;10.60;99.90
74171;DHT22;62526;50.948;6.590;2023-03-21T06:18:34;10.70;99.90
74171;DHT22;62526;50.948;6.590;2023-03-21T06:21:02;10.70;99.90
74171;DHT22;62526;50.948;6.590;2023-03-21T06:23:29;10.70;99.90
74171;DHT22;62526;50.948;6.590;2023-03-21T06:25:56;10.70;99.90
74171;DHT22;62526;50.948;6.590;2023-03-21T06:28:25;10.70;99.90
74171;DHT22;62526;50.948;6.590;2023-03-21T06:30:51;10.70;99.90
74171;DHT22;62526;50.948;6.590;2023-03-21T06:33:18;10.60;99.90
74171;DHT22;62526;50.948;6.590;2023-03-21T06:35:53;10.70;99.90
74171;DHT22;62526;50.948;6.590;2023-03-21T06:38:21;10.70;99.90
74171;DHT22;62526;50.948;6.590;2023-03-21T06:40:48;10.70;99.90
74171;DHT22;62526;50.948;6.590;2023-03-21T06:43:16;10.70;99.90
74171;DHT22;62526;50.948;6.590;2023-03-21T06:45:43;10.70;99.90
74171;DHT22;62526;50.948;6.590;2023-03-21T06:48:11;10.70;99.90
74171;DHT22;62526;50.948;6.590;2023-03-21T06:50:38;10.70;99.90
74171;DHT22;62526;50.948;6.590;2023-03-21T06:53:05;10.80;99.90
74171;DHT22;62526;50.948;6.590;2023-03-21T06:55:32;10.80;99.90
74171;DHT22;62526;50.948;6.590;2023-03-21T06:57:58;10.80;99.90
74171;DHT22;62526;50.948;6.590;2023-03-21T07:00:25;10.80;99.90
74171;DHT22;62526;50.948;6.590;2023-03-21T07:02:52;10.60;99.90
74171;DHT22;62526;50.948;6.590;2023-03-21T07:05:19;10.60;99.90
74171;DHT22;62526;50.948;6.590;2023-03-21T07:07:46;10.70;99.90
74171;DHT22;62526;50.948;6.590;2023-03-21T07:10:13;10.80;99.90
74171;DHT22;62526;50.948;6.590;2023-03-21T07:12:41;10.90;99.90
74171;DHT22;62526;50.948;6.590;2023-03-21T07:15:08;11.10;99.90
74171;DHT22;62526;50.948;6.590;2023-03-21T07:17:35;11.20;99.90
74171;DHT22;62526;50.948;6.590;2023-03-21T07:20:03;11.20;99.90
74171;DHT22;62526;50.948;6.590;2023-03-21T07:22:31;11.20;99.90
74171;DHT22;62526;50.948;6.590;2023-03-21T07:24:59;11.20;99.90
74171;DHT22;62526;50.948;6.590;2023-03-21T07:27:26;11.30;99.90
74171;DHT22;62526;50.948;6.590;2023-03-21T07:29:53;11.40;99.90
74171;DHT22;62526;50.948;6.590;2023-03-21T07:32:20;11.50;99.90
74171;DHT22;62526;50.948;6.590;2023-03-21T07:34:47;11.50;99.90
74171;DHT22;62526;50.948;6.590;2023-03-21T07:37:14;11.50;99.90
74171;DHT22;62526;50.948;6.590;2023-03-21T07:39:40;11.50;99.90
74171;DHT22;62526;50.948;6.590;2023-03-21T07:42:07;11.40;99.90
74171;DHT22;62526;50.948;6.590;2023-03-21T07:44:35;11.40;99.90
74171;DHT22;62526;50.948;6.590;2023-03-21T07:47:03;11.30;99.90
74171;DHT22;62526;50.948;6.590;2023-03-21T07:49:30;11.20;99.90
74171;DHT22;62526;50.948;6.590;2023-03-21T07:51:57;11.10;99.90
74171;DHT22;62526;50.948;6.590;2023-03-21T07:54:24;11.10;99.90
74171;DHT22;62526;50.948;6.590;2023-03-21T07:56:51;11.10;99.90
74171;DHT22;62526;50.948;6.590;2023-03-21T07:59:19;11.00;99.90
74171;DHT22;62526;50.948;6.590;2023-03-21T08:01:46;11.00;99.90
74171;DHT22;62526;50.948;6.590;2023-03-21T08:04:12;10.90;99.90
74171;DHT22;62526;50.948;6.590;2023-03-21T08:06:39;10.90;99.90
74171;DHT22;62526;50.948;6.590;2023-03-21T08:09:06;11.00;99.90
74171;DHT22;62526;50.948;6.590;2023-03-21T08:11:33;11.00;99.90
74171;DHT22;62526;50.948;6.590;2023-03-21T08:13:59;11.00;99.90
74171;DHT22;62526;50.948;6.590;2023-03-21T08:16:26;11.00;99.90
74171;DHT22;62526;50.948;6.590;2023-03-21T08:18:53;11.00;99.90
74171;DHT22;62526;50.948;6.590;2023-03-21T08:21:20;11.00;99.90
74171;DHT22;62526;50.948;6.590;2023-03-21T08:23:46;11.00;99.90
74171;DHT22;62526;50.948;6.590;2023-03-21T08:26:13;11.00;99.90
74171;DHT22;62526;50.948;6.590;2023-03-21T08:28:41;10.90;99.90
74171;DHT22;62526;50.948;6.590;2023-03-21T08:31:09;10.90;99.90
74171;DHT22;62526;50.948;6.590;2023-03-21T08:33:35;10.90;99.90
74171;DHT22;62526;50.948;6.590;2023-03-21T08:36:02;10.30;99.90
74171;DHT22;62526;50.948;6.590;2023-03-21T08:38:30;10.80;99.90
74171;DHT22;62526;50.948;6.590;2023-03-21T08:40:57;10.80;99.90
74171;DHT22;62526;50.948;6.590;2023-03-21T08:43:23;10.70;99.90
74171;DHT22;62526;50.948;6.590;2023-03-21T08:45:50;10.70;99.90
74171;DHT22;62526;50.948;6.590;2023-03-21T08:48:16;10.70;99.90
74171;DHT22;62526;50.948;6.590;2023-03-21T08:50:43;10.80;99.90
74171;DHT22;62526;50.948;6.590;2023-03-21T08:53:10;10.70;99.90
74171;DHT22;62526;50.948;6.590;2023-03-21T08:55:37;10.70;99.90
74171;DHT22;62526;50.948;6.590;2023-03-21T08:58:05;10.80;99.90
74171;DHT22;62526;50.948;6.590;2023-03-21T09:00:32;10.80;99.90
74171;DHT22;62526;50.948;6.590;2023-03-21T09:02:59;10.90;99.90
74171;DHT22;62526;50.948;6.590;2023-03-21T09:05:26;11.00;99.90
74171;DHT22;62526;50.948;6.590;2023-03-21T09:07:52;11.10;99.90
74171;DHT22;62526;50.948;6.590;2023-03-21T09:10:20;11.10;99.90
74171;DHT22;62526;50.948;6.590;2023-03-21T09:12:48;11.20;99.90
74171;DHT22;62526;50.948;6.590;2023-03-21T09:15:14;11.20;99.90
74171;DHT22;62526;50.948;6.590;2023-03-21T09:17:41;11.30;99.90
74171;DHT22;62526;50.948;6.590;2023-03-21T09:20:10;11.30;99.90
74171;DHT22;62526;50.948;6.590;2023-03-21T09:22:38;11.40;99.90
74171;DHT22;62526;50.948;6.590;2023-03-21T09:25:05;11.40;99.90
74171;DHT22;62526;50.948;6.590;2023-03-21T09:27:32;11.40;99.90
74171;DHT22;62526;50.948;6.590;2023-03-21T09:29:58;11.50;99.90
74171;DHT22;62526;50.948;6.590;2023-03-21T09:32:26;11.50;99.90
74171;DHT22;62526;50.948;6.590;2023-03-21T09:34:55;11.50;99.90
74171;DHT22;62526;50.948;6.590;2023-03-21T09:37:23;11.60;99.90
74171;DHT22;62526;50.948;6.590;2023-03-21T09:39:50;11.60;99.90
74171;DHT22;62526;50.948;6.590;2023-03-21T09:42:36;11.60;99.90
74171;DHT22;62526;50.948;6.590;2023-03-21T09:45:11;11.60;99.90
74171;DHT22;62526;50.948;6.590;2023-03-21T09:47:37;11.70;99.90
74171;DHT22;62526;50.948;6.590;2023-03-21T09:50:10;11.80;99.90
74171;DHT22;62526;50.948;6.590;2023-03-21T09:52:41;13.10;99.90
74171;DHT22;62526;50.948;6.590;2023-03-21T09:55:14;11.90;99.90
74171;DHT22;62526;50.948;6.590;2023-03-21T09:57:37;12.00;99.90
74171;DHT22;62526;50.948;6.590;2023-03-21T10:00:06;12.10;99.90
74171;DHT22;62526;50.948;6.590;2023-03-21T10:02:38;12.20;99.90
74171;DHT22;62526;50.948;6.590;2023-03-21T10:05:16;12.40;99.90
74171;DHT22;62526;50.948;6.590;2023-03-21T10:07:43;12.50;99.90
74171;DHT22;62526;50.948;6.590;2023-03-21T10:10:14;12.50;99.90
74171;DHT22;62526;50.948;6.590;2023-03-21T10:12:40;12.50;99.90
74171;DHT22;62526;50.948;6.590;2023-03-21T10:15:07;12.50;99.90
74171;DHT22;62526;50.948;6.590;2023-03-21T10:17:35;12.60;99.90
74171;DHT22;62526;50.948;6.590;2023-03-21T10:20:11;12.60;99.90
74171;DHT22;62526;50.948;6.590;2023-03-21T10:22:36;12.60;99.90
74171;DHT22;62526;50.948;6.590;2023-03-21T10:25:03;12.60;99.90
74171;DHT22;62526;50.948;6.590;2023-03-21T10:27:30;12.70;99.90
74171;DHT22;62526;50.948;6.590;2023-03-21T10:29:57;12.70;99.90
74171;DHT22;62526;50.948;6.590;2023-03-21T10:32:23;12.70;99.90
74171;DHT22;62526;50.948;6.590;2023-03-21T10:34:53;12.70;99.90
74171;DHT22;62526;50.948;6.590;2023-03-21T10:37:19;12.70;99.90
74171;DHT22;62526;50.948;6.590;2023-03-21T10:39:46;12.70;99.90
74171;DHT22;62526;50.948;6.590;2023-03-21T10:42:27;12.70;99.90
74171;DHT22;62526;50.948;6.590;2023-03-21T10:44:55;12.70;99.90
74171;DHT22;62526;50.948;6.590;2023-03-21T10:47:28;12.70;99.90
74171;DHT22;62526;50.948;6.590;2023-03-21T10:49:53;12.70;99.90
74171;DHT22;62526;50.948;6.590;2023-03-21T10:52:21;12.70;99.90
74171;DHT22;62526;50.948;6.590;2023-03-21T10:54:47;12.70;99.90
74171;DHT22;62526;50.948;6.590;2023-03-21T10:57:22;12.60;99.90
74171;DHT22;62526;50.948;6.590;2023-03-21T10:59:52;12.70;99.90
74171;DHT22;62526;50.948;6.590;2023-03-21T11:02:19;12.70;99.90
74171;DHT22;62526;50.948;6.590;2023-03-21T11:04:46;12.70;99.90
74171;DHT22;62526;50.948;6.590;2023-03-21T11:07:13;12.70;99.90
74171;DHT22;62526;50.948;6.590;2023-03-21T11:09:45;12.70;99.90
74171;DHT22;62526;50.948;6.590;2023-03-21T11:12:13;12.70;99.90
74171;DHT22;62526;50.948;6.590;2023-03-21T11:14:40;12.70;99.90
74171;DHT22;62526;50.948;6.590;2023-03-21T11:17:22;12.70;99.90
74171;DHT22;62526;50.948;6.590;2023-03-21T11:19:48;12.60;99.90
74171;DHT22;62526;50.948;6.590;2023-03-21T11:22:15;12.60;99.90
74171;DHT22;62526;50.948;6.590;2023-03-21T11:24:43;12.60;99.90
74171;DHT22;62526;50.948;6.590;2023-03-21T11:27:09;12.50;99.90
74171;DHT22;62526;50.948;6.590;2023-03-21T11:29:37;12.50;99.90
74171;DHT22;62526;50.948;6.590;2023-03-21T11:32:13;12.40;99.90
74171;DHT22;62526;50.948;6.590;2023-03-21T11:34:43;12.40;99.90
74171;DHT22;62526;50.948;6.590;2023-03-21T11:37:17;12.40;99.90
74171;DHT22;62526;50.948;6.590;2023-03-21T11:39:42;12.40;99.90
74171;DHT22;62526;50.948;6.590;2023-03-21T11:42:25;12.50;99.90
74171;DHT22;62526;50.948;6.590;2023-03-21T11:44:54;12.40;99.90
74171;DHT22;62526;50.948;6.590;2023-03-21T11:47:18;12.40;99.90
74171;DHT22;62526;50.948;6.590;2023-03-21T11:49:45;12.40;99.90
74171;DHT22;62526;50.948;6.590;2023-03-21T11:52:19;12.40;99.90
74171;DHT22;62526;50.948;6.590;2023-03-21T11:54:51;12.40;99.90
74171;DHT22;62526;50.948;6.590;2023-03-21T11:57:21;12.30;99.90
74171;DHT22;62526;50.948;6.590;2023-03-21T11:59:51;12.30;99.90
74171;DHT22;62526;50.948;6.590;2023-03-21T12:05:02;12.30;99.90
74171;DHT22;62526;50.948;6.590;2023-03-21T12:10:10;12.30;99.90
74171;DHT22;62526;50.948;6.590;2023-03-21T12:12:55;12.30;99.90
74171;DHT22;62526;50.948;6.590;2023-03-21T12:18:15;12.30;99.90
74171;DHT22;62526;50.948;6.590;2023-03-21T12:20:56;12.40;99.90
74171;DHT22;62526;50.948;6.590;2023-03-21T12:29:02;12.90;99.90
74171;DHT22;62526;50.948;6.590;2023-03-21T12:34:05;13.20;99.90
74171;DHT22;62526;50.948;6.590;2023-03-21T12:37:18;13.40;99.90
74171;DHT22;62526;50.948;6.590;2023-03-21T12:39:29;13.60;99.90
74171;DHT22;62526;50.948;6.590;2023-03-21T12:42:03;13.60;99.90
74171;DHT22;62526;50.948;6.590;2023-03-21T12:44:26;13.60;99.90
74171;DHT22;62526;50.948;6.590;2023-03-21T12:47:00;13.60;99.90
74171;DHT22;62526;50.948;6.590;2023-03-21T12:49:26;13.60;99.90
74171;DHT22;62526;50.948;6.590;2023-03-21T12:51:56;13.60;99.90
74171;DHT22;62526;50.948;6.590;2023-03-21T12:54:26;13.70;99.90
74171;DHT22;62526;50.948;6.590;2023-03-21T12:56:56;13.70;99.90
74171;DHT22;62526;50.948;6.590;2023-03-21T12:59:29;13.70;99.90
74171;DHT22;62526;50.948;6.590;2023-03-21T13:01:54;13.90;99.90
74171;DHT22;62526;50.948;6.590;2023-03-21T13:05:27;14.00;99.90
74171;DHT22;62526;50.948;6.590;2023-03-21T13:07:04;14.10;99.90
74171;DHT22;62526;50.948;6.590;2023-03-21T13:09:36;14.20;99.90
74171;DHT22;62526;50.948;6.590;2023-03-21T13:12:05;14.20;99.90
74171;DHT22;62526;50.948;6.590;2023-03-21T13:14:29;14.20;99.90
74171;DHT22;62526;50.948;6.590;2023-03-21T13:16:57;14.20;99.90
74171;DHT22;62526;50.948;6.590;2023-03-21T13:19:27;14.40;99.90
74171;DHT22;62526;50.948;6.590;2023-03-21T13:22:04;14.60;99.90
74171;DHT22;62526;50.948;6.590;2023-03-21T13:24:37;14.90;99.90
74171;DHT22;62526;50.948;6.590;2023-03-21T13:27:01;15.20;99.90
74171;DHT22;62526;50.948;6.590;2023-03-21T13:29:31;15.50;99.90
74171;DHT22;62526;50.948;6.590;2023-03-21T13:32:06;15.90;99.90
74171;DHT22;62526;50.948;6.590;2023-03-21T13:34:24;16.30;99.90
74171;DHT22;62526;50.948;6.590;2023-03-21T13:36:50;16.60;99.90
74171;DHT22;62526;50.948;6.590;2023-03-21T13:39:23;16.90;99.90
74171;DHT22;62526;50.948;6.590;2023-03-21T13:41:47;17.00;99.90
74171;DHT22;62526;50.948;6.590;2023-03-21T13:44:40;17.10;99.90
74171;DHT22;62526;50.948;6.590;2023-03-21T13:49:39;16.80;99.90
74171;DHT22;62526;50.948;6.590;2023-03-21T13:52:25;16.60;99.90
74171;DHT22;62526;50.948;6.590;2023-03-21T13:54:54;16.30;99.90
74171;DHT22;62526;50.948;6.590;2023-03-21T13:57:36;16.20;99.90
74171;DHT22;62526;50.948;6.590;2023-03-21T14:00:15;16.10;99.90
74171;DHT22;62526;50.948;6.590;2023-03-21T14:05:17;15.70;99.90
74171;DHT22;62526;50.948;6.590;2023-03-21T14:07:46;15.60;99.90
74171;DHT22;62526;50.948;6.590;2023-03-21T14:10:55;15.50;99.90
74171;DHT22;62526;50.948;6.590;2023-03-21T14:13:04;15.60;99.90
74171;DHT22;62526;50.948;6.590;2023-03-21T14:15:36;15.50;99.90
74171;DHT22;62526;50.948;6.590;2023-03-21T14:18:01;15.60;99.90
74171;DHT22;62526;50.948;6.590;2023-03-21T14:20:30;15.70;99.90
74171;DHT22;62526;50.948;6.590;2023-03-21T14:22:56;15.80;99.90
74171;DHT22;62526;50.948;6.590;2023-03-21T14:25:23;15.80;99.90
74171;DHT22;62526;50.948;6.590;2023-03-21T14:27:52;16.00;99.90
74171;DHT22;62526;50.948;6.590;2023-03-21T14:30:26;15.90;99.90
74171;DHT22;62526;50.948;6.590;2023-03-21T14:32:55;16.00;99.90
74171;DHT22;62526;50.948;6.590;2023-03-21T14:35:22;16.00;99.90
74171;DHT22;62526;50.948;6.590;2023-03-21T14:37:48;16.20;99.90
74171;DHT22;62526;50.948;6.590;2023-03-21T14:40:26;16.30;99.90
74171;DHT22;62526;50.948;6.590;2023-03-21T14:42:53;16.40;99.90
74171;DHT22;62526;50.948;6.590;2023-03-21T14:45:22;16.90;99.90
74171;DHT22;62526;50.948;6.590;2023-03-21T14:47:55;17.30;99.90
74171;DHT22;62526;50.948;6.590;2023-03-21T14:50:22;18.00;99.90
74171;DHT22;62526;50.948;6.590;2023-03-21T14:52:47;19.00;99.90
74171;DHT22;62526;50.948;6.590;2023-03-21T14:55:15;19.70;99.90
74171;DHT22;62526;50.948;6.590;2023-03-21T14:57:41;20.60;99.90
74171;DHT22;62526;50.948;6.590;2023-03-21T15:00:10;21.40;99.90
74171;DHT22;62526;50.948;6.590;2023-03-21T15:02:38;22.00;99.90
74171;DHT22;62526;50.948;6.590;2023-03-21T15:05:12;22.10;98.60
74171;DHT22;62526;50.948;6.590;2023-03-21T15:07:39;21.90;97.70
74171;DHT22;62526;50.948;6.590;2023-03-21T15:10:11;21.50;98.00
74171;DHT22;62526;50.948;6.590;2023-03-21T15:12:34;21.30;99.90
74171;DHT22;62526;50.948;6.590;2023-03-21T15:15:01;22.20;96.10
74171;DHT22;62526;50.948;6.590;2023-03-21T15:17:29;23.50;86.40
74171;DHT22;62526;50.948;6.590;2023-03-21T15:19:58;24.50;70.90
74171;DHT22;62526;50.948;6.590;2023-03-21T15:22:37;25.20;62.10
74171;DHT22;62526;50.948;6.590;2023-03-21T15:25:05;25.70;56.80
74171;DHT22;62526;50.948;6.590;2023-03-21T15:27:33;26.20;53.30
74171;DHT22;62526;50.948;6.590;2023-03-21T15:30:00;26.30;52.20
74171;DHT22;62526;50.948;6.590;2023-03-21T15:32:27;25.70;54.20
74171;DHT22;62526;50.948;6.590;2023-03-21T15:34:54;25.10;55.20
74171;DHT22;62526;50.948;6.590;2023-03-21T15:37:24;24.40;57.60
74171;DHT22;62526;50.948;6.590;2023-03-21T15:39:50;23.70;60.50
74171;DHT22;62526;50.948;6.590;2023-03-21T15:42:23;23.30;63.30
74171;DHT22;62526;50.948;6.590;2023-03-21T15:44:51;22.50;57.70
74171;DHT22;62526;50.948;6.590;2023-03-21T15:49:58;20.50;64.20
74171;DHT22;62526;50.948;6.590;2023-03-21T15:52:24;20.10;71.10
74171;DHT22;62526;50.948;6.590;2023-03-21T15:54:51;20.10;76.60
74171;DHT22;62526;50.948;6.590;2023-03-21T15:57:30;20.00;72.30
74171;DHT22;62526;50.948;6.590;2023-03-21T15:59:58;20.20;76.50
74171;DHT22;62526;50.948;6.590;2023-03-21T16:02:23;21.10;71.90
74171;DHT22;62526;50.948;6.590;2023-03-21T16:05:04;21.30;60.00
74171;DHT22;62526;50.948;6.590;2023-03-21T16:07:32;21.20;60.30
74171;DHT22;62526;50.948;6.590;2023-03-21T16:09:59;22.10;58.10
74171;DHT22;62526;50.948;6.590;2023-03-21T16:12:24;24.00;54.10
74171;DHT22;62526;50.948;6.590;2023-03-21T16:14:50;24.50;49.30